Time;durP1;ratioP1;P1;durP2;ratioP2;P2;SDS_P1;SDS_P2;PMS_P1;PMS_P2;Temp;Humidity;BMP_temperature;BMP_pressure;BME280_temperature;BME280_humidity;BME280_pressure;Samples;Min_cycle;Max_cycle;Signal;HPM_P1;HPM_P2
2021/10/01 00:01:12;;;;;;;9.75;2.50;;;12.50;99.90;;;;;;5064386;28;25067;-62
2021/10/01 00:03:38;;;;;;;11.18;2.70;;;12.50;99.90;;;;;;5062243;28;25115;-61
2021/10/01 00:06:04;;;;;;;7.18;2.78;;;12.50;99.90;;;;;;5062441;28;25075;-61
2021/10/01 00:08:29;;;;;;;8.90;2.83;;;12.50;99.90;;;;;;5063354;28;25115;-61
2021/10/01 00:10:57;;;;;;;5.50;2.40;;;12.50;99.90;;;;;;5062652;28;25068;-61
2021/10/01 00:13:23;;;;;;;5.78;2.42;;;12.50;99.90;;;;;;5060308;28;25119;-61
2021/10/01 00:15:48;;;;;;;4.38;2.35;;;12.50;99.90;;;;;;5062889;28;25085;-60
2021/10/01 00:18:14;;;;;;;10.57;3.70;;;12.50;99.90;;;;;;5055374;28;25086;-63
2021/10/01 00:20:40;;;;;;;8.25;2.30;;;12.50;99.90;;;;;;5062882;28;25077;-64
2021/10/01 00:23:05;;;;;;;7.05;2.60;;;12.50;99.90;;;;;;5066469;28;25089;-63
2021/10/01 00:25:31;;;;;;;11.35;3.03;;;12.50;99.90;;;;;;5065745;28;25159;-61
2021/10/01 00:27:57;;;;;;;9.95;2.70;;;12.50;99.90;;;;;;5065734;28;25139;-61
2021/10/01 00:30:23;;;;;;;9.27;2.80;;;12.50;99.90;;;;;;5067636;28;25105;-62
2021/10/01 00:32:49;;;;;;;7.63;2.85;;;12.50;99.90;;;;;;5077340;28;25073;-61
2021/10/01 00:35:15;;;;;;;10.55;2.70;;;12.50;99.90;;;;;;5065237;28;25069;-62
2021/10/01 00:37:40;;;;;;;8.10;2.40;;;12.60;99.90;;;;;;5057612;28;25123;-60
2021/10/01 00:40:06;;;;;;;9.50;2.33;;;12.50;99.90;;;;;;5065593;28;25070;-62
2021/10/01 00:42:32;;;;;;;5.57;2.05;;;12.50;99.90;;;;;;5059766;28;25079;-62
2021/10/01 00:44:58;;;;;;;5.85;2.50;;;12.60;99.90;;;;;;5061134;28;25072;-62
2021/10/01 00:47:24;;;;;;;7.05;2.42;;;12.50;99.90;;;;;;5057887;28;25052;-63
2021/10/01 00:49:50;;;;;;;7.40;2.60;;;12.50;99.90;;;;;;5061238;28;25055;-63
2021/10/01 00:52:18;;;;;;;7.63;2.75;;;12.50;99.90;;;;;;5058574;28;25127;-61
2021/10/01 00:54:43;;;;;;;10.75;3.45;;;12.50;99.90;;;;;;5058369;28;25108;-61
2021/10/01 00:57:09;;;;;;;11.10;2.80;;;12.40;99.90;;;;;;5046082;28;25101;-62
2021/10/01 00:59:35;;;;;;;7.05;2.45;;;12.40;99.90;;;;;;5062026;28;25068;-61
2021/10/01 01:02:00;;;;;;;5.78;2.58;;;12.40;99.90;;;;;;5057013;28;25079;-61
2021/10/01 01:04:26;;;;;;;10.50;2.15;;;12.40;99.90;;;;;;5051453;28;25104;-63
2021/10/01 01:07:23;;;;;;;5.82;2.30;;;12.40;99.90;;;;;;5065674;28;25109;-60
2021/10/01 01:10:17;;;;;;;11.80;2.88;;;12.30;99.90;;;;;;5060831;28;25140;-61
2021/10/01 01:12:59;;;;;;;8.32;2.30;;;12.20;99.90;;;;;;5050361;28;25096;-61
2021/10/01 01:15:30;;;;;;;6.07;2.30;;;12.20;99.90;;;;;;5056588;28;25109;-63
2021/10/01 01:18:13;;;;;;;7.30;2.77;;;12.30;99.90;;;;;;5061270;28;25062;-63
2021/10/01 01:20:48;;;;;;;10.75;2.08;;;12.30;99.90;;;;;;5062926;28;25104;-61
2021/10/01 01:23:39;;;;;;;7.05;2.30;;;12.30;99.90;;;;;;5044804;28;25125;-62
2021/10/01 01:26:27;;;;;;;11.85;2.05;;;12.40;99.90;;;;;;5067535;28;25065;-61
2021/10/01 01:29:24;;;;;;;11.20;2.92;;;12.40;99.90;;;;;;5072780;28;25111;-61
2021/10/01 01:31:55;;;;;;;9.18;2.88;;;12.40;99.90;;;;;;5069848;28;25110;-61
2021/10/01 01:34:36;;;;;;;8.87;2.87;;;12.40;99.90;;;;;;5045003;28;25073;-62
2021/10/01 01:37:08;;;;;;;5.45;2.25;;;12.50;99.90;;;;;;5053992;28;25071;-63
2021/10/01 01:39:36;;;;;;;13.27;2.05;;;12.50;99.90;;;;;;5063139;28;25058;-61
2021/10/01 01:42:04;;;;;;;12.20;2.55;;;12.50;99.90;;;;;;5058699;28;25066;-62
2021/10/01 01:44:30;;;;;;;3.90;2.13;;;12.60;99.90;;;;;;5066020;28;25077;-62
2021/10/01 01:46:57;;;;;;;5.32;2.10;;;12.60;99.90;;;;;;5060880;28;25126;-62
2021/10/01 01:49:24;;;;;;;5.25;1.95;;;12.60;99.90;;;;;;5054488;28;25117;-61
2021/10/01 01:51:50;;;;;;;10.80;2.50;;;12.60;99.90;;;;;;5063952;28;25071;-61
2021/10/01 01:54:18;;;;;;;7.22;2.05;;;12.60;99.90;;;;;;5061964;28;25055;-63
2021/10/01 01:56:45;;;;;;;8.50;1.85;;;12.60;99.90;;;;;;5064753;28;25066;-61
2021/10/01 01:59:12;;;;;;;6.43;2.08;;;12.60;99.90;;;;;;5058532;28;25139;-61
2021/10/01 02:01:40;;;;;;;5.38;2.00;;;12.60;99.90;;;;;;5065118;28;25130;-61
2021/10/01 02:04:06;;;;;;;5.88;1.90;;;12.60;99.90;;;;;;5056110;28;25130;-62
2021/10/01 02:06:33;;;;;;;5.70;2.15;;;12.60;99.90;;;;;;5052322;28;25086;-60
2021/10/01 02:09:00;;;;;;;7.90;2.05;;;12.60;99.90;;;;;;5064848;28;25055;-62
2021/10/01 02:11:27;;;;;;;8.65;2.60;;;12.60;99.90;;;;;;5062056;28;25128;-61
2021/10/01 02:13:53;;;;;;;7.70;1.85;;;12.50;99.90;;;;;;5066529;28;25102;-60
2021/10/01 02:16:20;;;;;;;9.85;1.70;;;12.60;99.90;;;;;;5068394;28;25067;-61
2021/10/01 02:18:49;;;;;;;7.07;1.90;;;12.50;99.90;;;;;;5060854;28;25151;-63
2021/10/01 02:21:17;;;;;;;10.20;2.42;;;12.50;99.90;;;;;;5068345;28;25058;-61
2021/10/01 02:23:43;;;;;;;8.07;1.98;;;12.50;99.90;;;;;;5067873;28;25098;-60
2021/10/01 02:29:05;;;;;;;5.70;1.63;;;12.40;99.90;;;;;;5050927;28;25183;-62
2021/10/01 02:31:40;;;;;;;6.78;2.10;;;12.40;99.90;;;;;;5056686;28;25058;-61
2021/10/01 02:34:08;;;;;;;5.82;1.67;;;12.40;99.90;;;;;;5068511;28;25076;-61
2021/10/01 02:36:33;;;;;;;3.45;1.73;;;12.40;99.90;;;;;;5066533;28;25067;-61
2021/10/01 02:38:59;;;;;;;4.90;1.55;;;12.30;99.90;;;;;;5065009;28;25077;-62
2021/10/01 02:41:24;;;;;;;5.80;1.90;;;12.30;99.90;;;;;;5057267;28;25131;-61
2021/10/01 02:43:50;;;;;;;11.15;1.73;;;12.30;99.90;;;;;;5067402;28;25082;-61
2021/10/01 02:46:16;;;;;;;11.43;2.70;;;12.30;99.90;;;;;;5058989;28;25090;-62
2021/10/01 02:48:41;;;;;;;9.52;2.42;;;12.30;99.90;;;;;;5064471;28;25053;-62
2021/10/01 02:51:13;;;;;;;9.00;1.90;;;12.30;99.90;;;;;;5068819;28;25129;-62
2021/10/01 02:54:01;;;;;;;8.25;1.85;;;12.30;99.90;;;;;;5066263;28;25065;-61
2021/10/01 02:56:33;;;;;;;4.97;1.83;;;12.30;99.90;;;;;;5051922;28;25065;-62
2021/10/01 02:59:02;;;;;;;10.60;2.38;;;12.30;99.90;;;;;;5050002;28;25111;-62
2021/10/01 03:01:29;;;;;;;7.47;2.20;;;12.30;99.90;;;;;;5067748;28;25049;-61
2021/10/01 03:04:01;;;;;;;4.03;1.77;;;12.30;99.90;;;;;;5065543;28;25062;-64
2021/10/01 03:06:30;;;;;;;4.03;1.43;;;12.20;99.90;;;;;;5064844;28;25138;-61
2021/10/01 03:08:56;;;;;;;7.43;1.88;;;12.20;99.90;;;;;;5068260;28;25074;-61
2021/10/01 03:11:28;;;;;;;10.07;2.00;;;12.10;99.90;;;;;;5063493;28;25123;-61
2021/10/01 03:13:54;;;;;;;5.43;2.13;;;12.10;99.90;;;;;;5065886;28;25117;-62
2021/10/01 03:16:21;;;;;;;5.70;1.90;;;12.10;99.90;;;;;;5052557;28;25082;-61
2021/10/01 03:18:49;;;;;;;8.50;2.03;;;12.10;99.90;;;;;;5033671;28;25055;-61
2021/10/01 03:21:17;;;;;;;5.32;1.70;;;12.10;99.90;;;;;;5067970;28;25114;-63
2021/10/01 03:23:44;;;;;;;9.43;2.33;;;12.10;99.90;;;;;;5056340;28;25047;-60
2021/10/01 03:26:11;;;;;;;5.80;1.77;;;12.10;99.90;;;;;;5063621;28;25062;-61
2021/10/01 03:28:37;;;;;;;5.47;1.90;;;12.10;99.90;;;;;;5066327;28;25067;-61
2021/10/01 03:31:04;;;;;;;6.20;1.95;;;12.10;99.90;;;;;;5065238;28;25058;-62
2021/10/01 03:33:29;;;;;;;7.10;1.95;;;12.10;99.90;;;;;;5057816;28;25126;-61
2021/10/01 03:35:55;;;;;;;7.00;2.03;;;12.10;99.90;;;;;;5064887;28;25134;-61
2021/10/01 03:38:23;;;;;;;5.97;2.10;;;12.10;99.90;;;;;;5063555;28;25147;-61
2021/10/01 03:40:49;;;;;;;5.82;2.33;;;12.10;99.90;;;;;;5066910;28;25099;-61
2021/10/01 03:43:17;;;;;;;9.77;2.08;;;12.20;99.90;;;;;;5075742;28;25154;-61
2021/10/01 03:45:43;;;;;;;7.80;3.00;;;12.20;99.90;;;;;;5074592;28;25103;-61
2021/10/01 03:48:09;;;;;;;7.72;2.70;;;12.20;99.90;;;;;;5066137;28;25073;-60
2021/10/01 03:50:36;;;;;;;6.88;2.08;;;12.20;99.90;;;;;;5060883;28;25048;-60
2021/10/01 03:53:02;;;;;;;6.63;2.83;;;12.10;99.90;;;;;;5063256;28;25064;-61
2021/10/01 03:55:28;;;;;;;10.10;2.38;;;12.10;99.90;;;;;;5068401;28;25050;-61
2021/10/01 03:57:54;;;;;;;9.35;2.83;;;12.00;99.90;;;;;;5051487;28;25057;-63
2021/10/01 04:00:20;;;;;;;6.43;2.20;;;12.00;99.90;;;;;;5072137;28;25050;-60
2021/10/01 04:02:46;;;;;;;8.00;2.25;;;12.00;99.90;;;;;;5064799;28;25061;-62
2021/10/01 04:05:14;;;;;;;9.80;2.38;;;12.10;99.90;;;;;;5067238;28;25149;-62
2021/10/01 04:07:40;;;;;;;7.28;2.50;;;12.10;99.90;;;;;;5067497;28;25062;-63
2021/10/01 04:10:06;;;;;;;5.93;2.30;;;12.10;99.90;;;;;;5067078;28;25083;-61
2021/10/01 04:12:33;;;;;;;7.43;2.30;;;12.10;99.90;;;;;;5062154;28;25067;-61
2021/10/01 04:14:59;;;;;;;7.53;2.58;;;12.10;99.90;;;;;;5065612;28;25067;-61
2021/10/01 04:17:24;;;;;;;4.38;2.20;;;12.10;99.90;;;;;;5061896;28;25080;-61
2021/10/01 04:19:50;;;;;;;5.15;1.98;;;12.10;99.90;;;;;;5063331;28;25066;-61
2021/10/01 04:22:16;;;;;;;7.78;2.97;;;12.10;99.90;;;;;;5061053;28;25091;-63
2021/10/01 04:24:42;;;;;;;6.97;2.08;;;12.10;99.90;;;;;;5068313;28;25059;-62
2021/10/01 04:27:08;;;;;;;4.32;2.35;;;12.10;99.90;;;;;;5069960;28;25089;-61
2021/10/01 04:29:34;;;;;;;8.75;2.63;;;12.10;99.90;;;;;;5066073;28;25082;-61
2021/10/01 04:32:03;;;;;;;5.30;2.42;;;12.10;99.90;;;;;;5062446;28;25054;-62
2021/10/01 04:34:32;;;;;;;10.52;2.53;;;12.20;99.90;;;;;;5061739;28;25067;-63
2021/10/01 04:36:58;;;;;;;6.82;1.65;;;12.20;99.90;;;;;;5061993;28;25058;-60
2021/10/01 04:39:23;;;;;;;6.00;1.83;;;12.10;99.90;;;;;;5082075;22;25127;-67
2021/10/01 04:41:49;;;;;;;5.97;1.70;;;12.20;99.90;;;;;;5064293;28;25150;-67
2021/10/01 04:44:14;;;;;;;5.70;1.98;;;12.10;99.90;;;;;;5065301;28;25077;-67
2021/10/01 04:46:40;;;;;;;5.93;1.60;;;12.10;99.90;;;;;;5064404;28;25079;-66
2021/10/01 04:49:06;;;;;;;4.10;1.85;;;12.10;99.90;;;;;;5051581;28;25069;-67
2021/10/01 04:51:31;;;;;;;4.88;1.98;;;12.10;99.90;;;;;;5059094;28;25190;-67
2021/10/01 04:53:57;;;;;;;4.93;1.70;;;12.10;99.90;;;;;;5052693;28;25056;-68
2021/10/01 04:56:23;;;;;;;4.30;1.20;;;12.10;99.90;;;;;;5064158;28;25126;-66
2021/10/01 04:58:48;;;;;;;3.47;1.55;;;12.10;99.90;;;;;;5054929;28;25068;-67
2021/10/01 05:01:14;;;;;;;9.25;1.92;;;12.20;99.90;;;;;;5056503;28;25104;-66
2021/10/01 05:03:39;;;;;;;7.55;2.05;;;12.20;99.90;;;;;;5055827;28;25137;-66
2021/10/01 05:06:05;;;;;;;8.68;1.80;;;12.10;99.90;;;;;;5056998;28;25058;-67
2021/10/01 05:08:30;;;;;;;9.30;2.47;;;12.20;99.90;;;;;;5057541;28;25121;-67
2021/10/01 05:10:56;;;;;;;10.63;2.20;;;12.20;99.90;;;;;;5041872;28;25136;-67
2021/10/01 05:13:22;;;;;;;5.63;1.85;;;12.20;99.90;;;;;;5042718;28;25137;-66
2021/10/01 05:15:48;;;;;;;4.80;1.73;;;12.20;99.90;;;;;;5055179;28;25153;-66
2021/10/01 05:18:15;;;;;;;6.10;2.60;;;12.20;99.90;;;;;;5054254;28;25064;-67
2021/10/01 05:20:41;;;;;;;9.52;2.00;;;12.30;99.90;;;;;;5043344;28;25078;-65
2021/10/01 05:23:07;;;;;;;5.35;2.00;;;12.30;99.90;;;;;;5040413;28;25069;-67
2021/10/01 05:25:32;;;;;;;7.82;2.05;;;12.30;99.90;;;;;;5054856;28;25079;-67
2021/10/01 05:27:58;;;;;;;3.63;1.33;;;12.30;99.90;;;;;;5055791;28;25075;-68
2021/10/01 05:30:24;;;;;;;4.80;1.70;;;12.30;99.90;;;;;;5041183;28;25073;-66
2021/10/01 05:32:49;;;;;;;9.30;1.98;;;12.40;99.90;;;;;;5053333;28;25058;-66
2021/10/01 05:35:15;;;;;;;6.40;1.88;;;12.40;99.90;;;;;;5036336;28;25082;-69
2021/10/01 05:37:41;;;;;;;7.55;1.58;;;12.40;99.90;;;;;;5055451;28;25142;-66
2021/10/01 05:40:07;;;;;;;6.32;1.48;;;12.40;99.90;;;;;;5062960;28;25094;-66
2021/10/01 05:42:33;;;;;;;6.70;1.98;;;12.40;99.90;;;;;;5056105;28;25140;-69
2021/10/01 05:44:58;;;;;;;9.48;2.15;;;12.30;99.90;;;;;;5064616;28;25084;-67
2021/10/01 05:47:24;;;;;;;3.85;1.42;;;12.30;99.90;;;;;;5067357;28;25093;-66
2021/10/01 05:49:50;;;;;;;19.60;4.60;;;12.30;99.90;;;;;;5065311;28;25068;-66
2021/10/01 05:52:26;;;;;;;6.10;1.75;;;12.30;99.90;;;;;;5058295;28;25089;-68
2021/10/01 05:54:52;;;;;;;5.80;1.70;;;12.30;99.90;;;;;;5042107;28;25066;-65
2021/10/01 05:57:19;;;;;;;9.40;2.38;;;12.30;99.90;;;;;;5061320;28;25094;-66
2021/10/01 05:59:45;;;;;;;7.30;1.52;;;12.30;99.90;;;;;;5063918;28;25126;-66
2021/10/01 06:02:13;;;;;;;4.40;1.48;;;12.30;99.90;;;;;;5074040;28;25082;-66
2021/10/01 06:04:39;;;;;;;7.55;1.80;;;12.30;99.90;;;;;;5070955;28;25053;-64
2021/10/01 06:07:05;;;;;;;5.75;1.70;;;12.30;99.90;;;;;;5075264;28;25062;-66
2021/10/01 06:09:31;;;;;;;10.48;2.20;;;12.20;99.90;;;;;;5065656;28;25076;-68
2021/10/01 06:11:56;;;;;;;5.35;1.55;;;12.20;99.90;;;;;;5068159;28;25079;-68
2021/10/01 06:14:23;;;;;;;5.90;1.65;;;12.20;99.90;;;;;;5060671;28;25133;-67
2021/10/01 06:16:50;;;;;;;6.13;1.48;;;12.20;99.90;;;;;;5056227;28;25122;-67
2021/10/01 06:19:16;;;;;;;6.82;1.30;;;12.20;99.90;;;;;;5064162;28;25086;-68
2021/10/01 06:21:42;;;;;;;5.55;1.38;;;12.10;99.90;;;;;;5055852;28;25077;-64
2021/10/01 06:24:08;;;;;;;11.85;1.92;;;12.20;99.90;;;;;;5032506;28;25140;-66
2021/10/01 06:26:33;;;;;;;9.45;1.95;;;12.10;99.90;;;;;;5064190;28;25072;-67
2021/10/01 06:28:59;;;;;;;7.05;1.80;;;12.10;99.90;;;;;;5051623;28;25082;-64
2021/10/01 06:31:25;;;;;;;5.80;1.85;;;12.20;99.90;;;;;;5052486;28;25064;-65
2021/10/01 06:33:50;;;;;;;3.10;1.58;;;12.20;99.90;;;;;;5054708;28;25080;-67
2021/10/01 06:36:19;;;;;;;5.82;1.70;;;12.20;99.90;;;;;;5048228;28;25055;-64
2021/10/01 06:38:45;;;;;;;7.90;1.60;;;12.20;99.90;;;;;;5064836;28;25057;-65
2021/10/01 06:41:11;;;;;;;14.27;2.13;;;12.20;99.90;;;;;;5061751;28;25088;-67
2021/10/01 06:43:37;;;;;;;9.38;1.80;;;12.20;99.90;;;;;;5066473;28;25101;-67
2021/10/01 06:46:07;;;;;;;9.23;1.98;;;12.20;99.90;;;;;;5063684;28;25080;-68
2021/10/01 07:24:15;;;;;;;5.60;1.90;;;12.50;99.90;;;;;;5058050;28;25064;-67
2021/10/01 07:34:33;;;;;;;4.30;1.80;;;12.50;99.90;;;;;;5068680;28;25145;-65
2021/10/01 08:21:13;;;;;;;3.03;1.67;;;13.40;99.90;;;;;;5068819;28;25074;-66
2021/10/01 08:23:41;;;;;;;10.05;2.63;;;13.50;99.90;;;;;;5068893;28;25116;-66
2021/10/01 08:26:06;;;;;;;11.60;2.30;;;13.40;99.90;;;;;;5068175;28;25114;-67
2021/10/01 08:28:32;;;;;;;12.90;1.95;;;13.50;99.90;;;;;;5067678;28;25095;-65
2021/10/01 08:30:59;;;;;;;5.22;1.63;;;13.60;99.90;;;;;;5064148;28;25060;-66
2021/10/01 08:33:24;;;;;;;12.38;2.20;;;13.70;99.90;;;;;;5056132;28;25095;-66
2021/10/01 08:35:50;;;;;;;7.82;2.03;;;13.80;99.90;;;;;;5065146;28;25074;-67
2021/10/01 08:38:15;;;;;;;6.40;2.13;;;13.80;99.90;;;;;;5054609;28;25073;-65
2021/10/01 08:40:41;;;;;;;11.32;2.20;;;13.80;99.90;;;;;;5063503;28;25066;-64
2021/10/01 08:43:08;;;;;;;10.52;2.05;;;13.80;99.90;;;;;;5067308;28;25123;-66
2021/10/01 08:45:34;;;;;;;7.10;1.73;;;13.90;99.90;;;;;;5065572;28;25081;-66
2021/10/01 08:48:00;;;;;;;9.93;2.45;;;13.90;99.90;;;;;;5064764;28;25073;-66
2021/10/01 08:50:27;;;;;;;6.85;1.80;;;13.90;99.90;;;;;;5068421;28;25066;-65
2021/10/01 08:52:56;;;;;;;6.57;1.75;;;14.00;99.90;;;;;;5065217;28;25091;-66
2021/10/01 08:55:21;;;;;;;7.45;2.10;;;14.10;99.90;;;;;;5067200;28;25145;-66
2021/10/01 08:57:47;;;;;;;8.02;1.80;;;14.30;99.90;;;;;;5049486;28;25143;-68
2021/10/01 09:00:16;;;;;;;10.98;2.42;;;14.50;99.90;;;;;;5064931;28;25069;-65
2021/10/01 09:02:41;;;;;;;10.98;2.92;;;14.40;99.90;;;;;;5066878;28;25114;-66
2021/10/01 09:05:08;;;;;;;9.57;2.22;;;14.40;99.90;;;;;;5065280;28;25101;-68
2021/10/01 09:07:33;;;;;;;8.27;2.03;;;14.40;99.90;;;;;;5065763;28;25065;-67
2021/10/01 09:09:59;;;;;;;11.48;2.60;;;14.30;99.90;;;;;;5066029;28;25050;-66
2021/10/01 09:12:25;;;;;;;5.70;1.95;;;14.40;99.90;;;;;;5063871;28;25100;-65
2021/10/01 09:14:56;;;;;;;6.70;2.55;;;14.60;99.90;;;;;;5066266;28;25063;-66
2021/10/01 09:17:25;;;;;;;6.50;2.10;;;14.70;99.90;;;;;;5067413;28;25072;-63
2021/10/01 09:19:53;;;;;;;7.50;2.25;;;14.60;99.90;;;;;;5065564;28;25114;-66
2021/10/01 09:22:35;;;;;;;8.25;2.08;;;14.50;99.90;;;;;;5068167;28;25153;-67
2021/10/01 09:25:12;;;;;;;10.77;3.20;;;14.40;99.90;;;;;;5065596;28;25078;-67
2021/10/01 09:27:41;;;;;;;11.25;2.50;;;14.40;99.90;;;;;;5065177;28;25103;-67
2021/10/01 09:30:09;;;;;;;8.30;1.95;;;14.40;99.90;;;;;;5066842;28;25127;-68
2021/10/01 09:32:34;;;;;;;7.28;1.88;;;14.20;99.90;;;;;;5060126;28;25051;-68
2021/10/01 09:35:12;;;;;;;8.10;2.35;;;14.20;99.90;;;;;;5063290;28;25059;-66
2021/10/01 09:37:38;;;;;;;9.52;2.25;;;14.00;99.90;;;;;;5038448;28;25082;-66
2021/10/01 09:40:05;;;;;;;5.88;2.30;;;14.00;99.90;;;;;;5059004;28;25121;-68
2021/10/01 09:42:39;;;;;;;9.27;2.20;;;14.10;99.90;;;;;;5062975;28;25145;-67
2021/10/01 09:45:07;;;;;;;6.45;1.75;;;14.00;99.90;;;;;;5056964;28;25051;-68
2021/10/01 09:47:34;;;;;;;7.75;2.17;;;14.10;99.90;;;;;;5050482;28;25124;-67
2021/10/01 09:50:09;;;;;;;8.80;2.22;;;14.20;99.90;;;;;;5065809;28;25085;-68
2021/10/01 09:52:50;;;;;;;12.73;2.70;;;14.10;99.90;;;;;;5061981;28;25084;-67
2021/10/01 09:55:19;;;;;;;8.80;2.50;;;14.00;99.90;;;;;;5070182;28;25102;-65
2021/10/01 09:58:03;;;;;;;9.98;2.38;;;13.90;99.90;;;;;;5063362;28;25138;-67
2021/10/01 10:00:50;;;;;;;6.55;2.50;;;13.80;99.90;;;;;;5031024;28;25071;-67
2021/10/01 10:03:24;;;;;;;5.90;2.17;;;13.60;99.90;;;;;;5056128;28;25113;-68
2021/10/01 10:06:04;;;;;;;9.23;2.22;;;13.60;99.90;;;;;;5066276;28;25064;-68
2021/10/01 10:08:35;;;;;;;9.68;2.63;;;13.60;99.90;;;;;;5062503;28;25105;-68
2021/10/01 10:11:02;;;;;;;8.32;2.40;;;13.50;99.90;;;;;;5058971;28;25067;-69
2021/10/01 10:14:10;;;;;;;6.97;2.67;;;13.60;99.90;;;;;;5058623;28;25048;-67
2021/10/01 10:16:36;;;;;;;5.20;2.20;;;13.60;99.90;;;;;;5003008;28;25127;-69
2021/10/01 10:19:08;;;;;;;10.70;3.30;;;13.60;99.90;;;;;;5004672;28;25064;-68
2021/10/01 10:21:35;;;;;;;;;;;13.70;99.90;;;;;;5035665;28;25083;-68
2021/10/01 10:24:01;;;;;;;10.55;2.70;;;13.80;99.90;;;;;;5066548;28;24065;-68
2021/10/01 10:26:27;;;;;;;8.00;3.30;;;14.00;99.90;;;;;;5039234;28;25060;-67
2021/10/01 10:28:56;;;;;;;7.68;2.35;;;14.10;99.90;;;;;;5046120;28;25059;-68
2021/10/01 10:31:26;;;;;;;10.50;3.47;;;14.10;99.90;;;;;;5064236;28;25120;-67
2021/10/01 10:33:56;;;;;;;7.60;2.75;;;14.10;99.90;;;;;;5053393;28;25137;-68
2021/10/01 10:36:47;;;;;;;7.30;2.20;;;14.20;99.90;;;;;;5058800;28;25146;-68
2021/10/01 10:39:12;;;;;;;6.28;2.38;;;14.30;99.90;;;;;;5086065;22;25144;-64
2021/10/01 10:41:46;;;;;;;8.55;2.90;;;14.40;99.90;;;;;;5066896;28;25075;-64
2021/10/01 10:44:13;;;;;;;11.20;3.08;;;14.50;99.90;;;;;;5064885;28;25169;-65
2021/10/01 10:46:43;;;;;;;12.77;2.50;;;14.60;99.90;;;;;;5068007;28;25115;-65
2021/10/01 10:49:21;;;;;;;8.10;2.33;;;14.70;99.90;;;;;;5068877;28;25110;-66
2021/10/01 10:52:16;;;;;;;11.65;3.17;;;14.80;99.90;;;;;;5047027;28;25088;-64
2021/10/01 10:54:44;;;;;;;9.80;2.58;;;14.90;99.90;;;;;;5046772;28;25067;-63
2021/10/01 10:57:21;;;;;;;10.90;3.13;;;15.00;99.90;;;;;;5047683;28;25079;-65
2021/10/01 10:59:53;;;;;;;7.05;2.83;;;15.10;99.90;;;;;;5033517;28;25139;-65
2021/10/01 11:05:27;;;;;;;6.82;2.15;;;15.20;99.90;;;;;;5050503;28;25098;-64
2021/10/01 11:07:53;;;;;;;8.00;2.53;;;15.20;99.90;;;;;;5041400;28;25143;-64
2021/10/01 11:10:47;;;;;;;5.70;1.95;;;15.30;99.90;;;;;;5038956;28;25074;-63
2021/10/01 11:13:18;;;;;;;7.78;2.15;;;15.30;99.90;;;;;;5042365;28;25089;-64
2021/10/01 11:16:11;;;;;;;7.45;1.98;;;15.30;99.90;;;;;;5048171;28;25119;-62
2021/10/01 11:18:58;;;;;;;8.50;2.22;;;15.40;99.90;;;;;;5040939;28;25082;-64
2021/10/01 11:21:27;;;;;;;7.65;2.17;;;15.50;99.90;;;;;;5051925;28;25067;-63
2021/10/01 11:24:15;;;;;;;4.30;1.90;;;15.40;99.90;;;;;;5058113;28;25106;-64
2021/10/01 11:26:49;;;;;;;6.57;2.47;;;15.50;99.90;;;;;;5058180;28;25091;-63
2021/10/01 11:29:29;;;;;;;5.60;1.98;;;15.50;99.90;;;;;;5047002;28;25104;-65
2021/10/01 11:32:07;;;;;;;8.63;2.20;;;15.60;99.90;;;;;;5047817;28;25104;-64
2021/10/01 11:34:42;;;;;;;8.45;1.73;;;15.60;99.90;;;;;;5046742;28;25070;-63
2021/10/01 11:37:29;;;;;;;10.75;2.40;;;15.60;99.90;;;;;;5054888;28;25063;-65
2021/10/01 11:40:26;;;;;;;6.22;1.92;;;15.70;99.90;;;;;;5039724;28;25049;-64
2021/10/01 11:42:54;;;;;;;11.35;1.95;;;15.80;99.90;;;;;;5027194;28;25086;-65
2021/10/01 11:45:25;;;;;;;6.93;2.03;;;15.90;99.90;;;;;;5054149;28;25130;-63
2021/10/01 11:48:12;;;;;;;6.68;1.70;;;15.90;99.90;;;;;;5046656;28;25165;-65
2021/10/01 11:50:48;;;;;;;12.45;2.13;;;15.90;99.90;;;;;;5038287;28;25078;-67
2021/10/01 11:53:25;;;;;;;11.75;2.70;;;16.00;99.90;;;;;;5045331;28;25119;-63
2021/10/01 11:55:58;;;;;;;11.95;2.30;;;16.00;99.90;;;;;;5064840;28;25069;-65
2021/10/01 11:58:25;;;;;;;10.18;2.40;;;16.00;99.90;;;;;;5057803;28;25074;-63
2021/10/01 12:00:52;;;;;;;7.68;1.92;;;16.00;99.90;;;;;;5046148;28;25110;-67
2021/10/01 12:03:19;;;;;;;8.20;2.67;;;16.00;99.90;;;;;;5046332;28;25152;-64
2021/10/01 12:05:49;;;;;;;6.78;2.08;;;15.90;99.90;;;;;;5056056;28;25070;-64
2021/10/01 12:08:19;;;;;;;11.38;2.80;;;16.00;99.90;;;;;;5052891;28;25077;-64
2021/10/01 12:10:46;;;;;;;5.38;2.38;;;15.90;99.90;;;;;;5059582;28;25100;-65
2021/10/01 12:13:16;;;;;;;5.28;1.77;;;16.00;99.90;;;;;;5052106;28;25065;-64
2021/10/01 12:15:48;;;;;;;7.68;1.90;;;16.00;99.90;;;;;;5047914;28;25119;-63
2021/10/01 12:18:34;;;;;;;8.00;2.20;;;15.90;99.90;;;;;;5049147;28;25121;-62
2021/10/01 12:21:15;;;;;;;6.57;2.40;;;15.90;99.90;;;;;;5042975;28;25126;-63
2021/10/01 12:23:47;;;;;;;7.13;2.45;;;15.80;99.90;;;;;;5032684;28;25054;-63
2021/10/01 12:26:31;;;;;;;8.75;2.47;;;15.80;99.90;;;;;;5049447;28;25069;-69
2021/10/01 12:29:02;;;;;;;9.75;2.25;;;15.80;99.90;;;;;;5050467;28;25103;-66
2021/10/01 12:31:31;;;;;;;9.85;3.05;;;15.80;99.90;;;;;;5045362;28;25126;-64
2021/10/01 12:34:01;;;;;;;5.80;2.17;;;15.80;99.90;;;;;;5046618;28;25084;-64
2021/10/01 12:36:28;;;;;;;9.90;2.40;;;15.90;99.90;;;;;;5025226;28;25067;-64
2021/10/01 12:38:55;;;;;;;6.75;1.83;;;15.90;99.90;;;;;;5027667;28;25078;-63
2021/10/01 12:41:22;;;;;;;8.82;1.98;;;15.90;99.90;;;;;;5037919;28;25098;-65
2021/10/01 12:43:54;;;;;;;9.05;2.10;;;16.00;99.90;;;;;;5036522;28;25069;-64
2021/10/01 12:47:09;;;;;;;6.53;2.20;;;16.00;99.90;;;;;;5012502;28;25182;-66
2021/10/01 12:49:34;;;;;;;16.25;2.85;;;16.00;99.90;;;;;;4985595;28;25070;-64
2021/10/01 12:52:20;;;;;;;13.30;2.42;;;16.00;99.90;;;;;;4984873;28;25076;-64
2021/10/01 12:55:04;;;;;;;6.38;2.00;;;16.10;99.90;;;;;;5026291;28;25090;-64
2021/10/01 12:57:29;;;;;;;10.95;3.00;;;16.10;99.90;;;;;;5044867;28;25084;-64
2021/10/01 12:59:55;;;;;;;7.53;2.35;;;16.10;99.90;;;;;;5046353;28;25072;-62
2021/10/01 13:02:26;;;;;;;7.20;2.00;;;16.10;99.90;;;;;;5046529;28;25073;-66
2021/10/01 13:04:59;;;;;;;7.50;2.30;;;16.00;99.90;;;;;;5047181;28;25116;-65
2021/10/01 13:07:30;;;;;;;6.97;1.58;;;15.90;99.90;;;;;;5046086;28;25053;-64
2021/10/01 13:09:59;;;;;;;14.30;1.98;;;15.90;99.90;;;;;;5046253;28;25171;-64
2021/10/01 13:12:32;;;;;;;10.02;2.28;;;15.90;99.90;;;;;;5049190;28;25141;-64
2021/10/01 13:15:09;;;;;;;7.75;1.67;;;15.80;99.90;;;;;;5051799;28;25137;-65
2021/10/01 13:17:35;;;;;;;8.77;1.98;;;15.70;99.90;;;;;;5046216;28;25137;-63
2021/10/01 13:20:01;;;;;;;9.80;1.90;;;15.70;99.90;;;;;;5044038;28;25075;-62
2021/10/01 13:22:46;;;;;;;7.38;1.50;;;15.70;99.90;;;;;;5055098;28;25060;-64
2021/10/01 13:25:12;;;;;;;7.35;1.83;;;15.60;99.90;;;;;;5055551;28;25114;-65
2021/10/01 13:27:37;;;;;;;8.55;1.88;;;15.70;99.90;;;;;;5046825;28;25068;-64
2021/10/01 13:30:03;;;;;;;13.73;2.20;;;15.70;99.90;;;;;;5056874;28;25134;-64
2021/10/01 13:32:28;;;;;;;3.15;1.27;;;15.80;99.90;;;;;;5065887;28;25144;-66
2021/10/01 13:34:54;;;;;;;8.45;1.73;;;15.90;99.90;;;;;;5056584;28;25120;-64
2021/10/01 13:37:20;;;;;;;4.22;1.42;;;16.00;99.90;;;;;;5046475;28;25083;-64
2021/10/01 13:39:45;;;;;;;8.13;1.95;;;16.10;99.90;;;;;;5049299;28;25064;-63
2021/10/01 13:42:11;;;;;;;6.97;1.67;;;16.20;99.90;;;;;;5047018;28;25111;-66
2021/10/01 13:44:36;;;;;;;8.25;1.95;;;16.20;99.90;;;;;;5040118;28;25065;-65
2021/10/01 13:47:02;;;;;;;7.55;1.73;;;16.20;99.90;;;;;;5048192;28;25129;-63
2021/10/01 13:49:27;;;;;;;8.48;1.92;;;16.20;99.90;;;;;;5052360;28;25078;-63
2021/10/01 13:51:53;;;;;;;6.47;1.80;;;16.10;99.90;;;;;;5060536;28;25076;-65
2021/10/01 13:54:18;;;;;;;7.10;1.92;;;16.00;99.90;;;;;;5046663;28;25086;-64
2021/10/01 13:56:44;;;;;;;6.63;1.67;;;16.00;99.90;;;;;;5067194;28;25088;-65
2021/10/01 13:59:10;;;;;;;6.25;1.90;;;16.00;99.90;;;;;;5073701;28;25055;-65
2021/10/01 14:01:37;;;;;;;8.98;2.22;;;16.00;99.90;;;;;;5053581;28;25105;-64
2021/10/01 14:04:02;;;;;;;6.85;2.03;;;15.80;99.90;;;;;;5060610;28;25076;-64
2021/10/01 14:06:28;;;;;;;10.00;2.20;;;15.80;99.90;;;;;;5059836;28;25101;-65
2021/10/01 14:08:53;;;;;;;4.53;1.85;;;15.80;99.90;;;;;;5069636;28;25099;-66
2021/10/01 14:11:19;;;;;;;14.07;2.63;;;15.80;99.90;;;;;;5055918;28;25088;-65
2021/10/01 14:13:45;;;;;;;7.50;2.38;;;15.80;99.90;;;;;;5058367;28;25068;-64
2021/10/01 14:16:10;;;;;;;9.05;2.20;;;15.80;99.90;;;;;;5055014;28;25217;-63
2021/10/01 14:18:36;;;;;;;8.27;2.20;;;15.70;99.90;;;;;;5052818;28;25062;-64
2021/10/01 14:21:02;;;;;;;6.50;2.17;;;15.70;99.90;;;;;;5062207;28;25065;-65
2021/10/01 14:23:27;;;;;;;7.57;2.45;;;15.80;99.90;;;;;;5054215;28;25065;-64
2021/10/01 14:25:53;;;;;;;6.97;1.50;;;15.80;99.90;;;;;;5031747;28;25083;-64
2021/10/01 14:28:18;;;;;;;8.27;2.10;;;15.80;99.90;;;;;;5050318;28;25086;-64
2021/10/01 14:30:44;;;;;;;12.10;2.17;;;15.70;99.90;;;;;;5049113;28;25078;-63